createdAt,value
2018-09-17T00:00:40.913Z,101525.44
2018-09-17T00:01:46.377Z,101521.58
2018-09-17T00:02:51.854Z,101520.64
2018-09-17T00:03:57.417Z,101520.22
2018-09-17T00:05:02.921Z,101518.55
2018-09-17T00:06:08.390Z,101513.43
2018-09-17T00:07:13.852Z,101514.37
2018-09-17T00:08:19.298Z,101513.02
2018-09-17T00:09:25.243Z,101509.60
2018-09-17T00:10:30.679Z,101510.47
2018-09-17T00:11:36.272Z,101505.66
2018-09-17T00:12:41.809Z,101500.55
2018-09-17T00:13:47.589Z,101508.28
2018-09-17T00:14:53.114Z,101504.86
2018-09-17T00:15:58.588Z,101508.28
2018-09-17T00:17:04.059Z,101509.53
2018-09-17T00:18:09.488Z,101506.05
2018-09-17T00:19:15.133Z,101506.47
2018-09-17T00:20:20.626Z,101500.03
2018-09-17T00:21:26.253Z,101500.41
2018-09-17T00:22:31.721Z,101500.41
2018-09-17T00:23:37.172Z,101496.97
2018-09-17T00:24:42.601Z,101493.52
2018-09-17T00:25:48.047Z,101490.48
2018-09-17T00:26:53.513Z,101488.81
2018-09-17T00:27:59.600Z,101492.75
2018-09-17T00:29:05.043Z,101500.55
2018-09-17T00:30:10.468Z,101490.24
2018-09-17T00:31:15.968Z,101491.53
2018-09-17T00:32:21.397Z,101498.88
2018-09-17T00:33:26.828Z,101494.14
2018-09-17T00:34:32.239Z,101487.70
2018-09-17T00:35:37.698Z,101491.53
2018-09-17T00:36:43.176Z,101487.77
2018-09-17T00:37:48.668Z,101480.14
2018-09-17T00:38:54.105Z,101480.63
2018-09-17T00:39:59.569Z,101472.00
2018-09-17T00:41:05.136Z,101477.98
2018-09-17T00:42:10.673Z,101472.87
2018-09-17T00:43:16.287Z,101471.61
2018-09-17T00:44:21.758Z,101466.08
2018-09-17T00:45:27.253Z,101477.35
2018-09-17T00:46:32.710Z,101481.22
2018-09-17T00:47:38.148Z,101474.88
2018-09-17T00:48:43.592Z,101474.11
2018-09-17T00:49:48.988Z,101479.64
2018-09-17T00:50:54.570Z,101478.84
2018-09-17T00:51:59.988Z,101477.59
2018-09-17T00:53:05.424Z,101480.06
2018-09-17T00:54:10.888Z,101481.73
2018-09-17T00:55:16.438Z,101485.18
2018-09-17T00:56:21.899Z,101480.55
2018-09-17T00:57:27.492Z,101477.06
2018-09-17T00:58:32.899Z,101483.12
2018-09-17T00:59:38.539Z,101477.27
2018-09-17T01:00:43.977Z,101475.56
2018-09-17T01:01:49.505Z,101473.98
2018-09-17T01:02:54.954Z,101469.32
2018-09-17T01:04:00.380Z,101463.41
2018-09-17T01:05:06.366Z,101458.31
2018-09-17T01:06:11.837Z,101456.19
2018-09-17T01:07:17.425Z,101449.82
2018-09-17T01:08:22.839Z,101450.69
2018-09-17T01:09:33.566Z,101447.31
2018-09-17T01:10:39.018Z,101446.19
2018-09-17T01:11:44.527Z,101444.93
2018-09-17T01:12:49.991Z,101444.73
2018-09-17T01:13:55.429Z,101443.52
2018-09-17T01:15:00.992Z,101442.22
2018-09-17T01:16:06.601Z,101448.11
2018-09-17T01:17:12.020Z,101449.02
2018-09-17T01:18:17.462Z,101447.05
2018-09-17T01:19:22.921Z,101444.89
2018-09-17T01:20:28.406Z,101449.77
2018-09-17T01:21:33.915Z,101452.41
2018-09-17T01:22:39.372Z,101448.04
2018-09-17T01:23:44.813Z,101453.28
2018-09-17T01:24:50.260Z,101455.88
2018-09-17T01:25:55.903Z,101457.17
2018-09-17T01:27:01.438Z,101453.78
2018-09-17T01:28:06.941Z,101452.53
2018-09-17T01:29:12.511Z,101452.98
2018-09-17T01:30:18.157Z,101452.20
2018-09-17T01:31:23.777Z,101453.97
2018-09-17T01:32:29.203Z,101460.25
2018-09-17T01:33:34.687Z,101459.95
2018-09-17T01:34:40.100Z,101460.04
2018-09-17T01:35:45.609Z,101464.49
2018-09-17T01:36:51.142Z,101465.78
2018-09-17T01:37:56.624Z,101464.41
2018-09-17T01:39:02.125Z,101469.46
2018-09-17T01:40:07.589Z,101461.80
2018-09-17T01:41:13.161Z,101458.84
2018-09-17T01:42:18.580Z,101455.88
2018-09-17T01:43:24.064Z,101451.63
2018-09-17T01:44:29.509Z,101453.76
2018-09-17T01:45:35.105Z,101453.81
2018-09-17T01:46:40.602Z,101457.64
2018-09-17T01:47:46.065Z,101460.22
2018-09-17T01:48:51.573Z,101460.22
2018-09-17T01:49:57.037Z,101468.41
2018-09-17T01:51:02.548Z,101467.18
2018-09-17T01:52:08.144Z,101471.40
2018-09-17T01:53:13.593Z,101472.56
2018-09-17T01:54:19.087Z,101473.05
2018-09-17T01:55:24.617Z,101471.81
2018-09-17T01:56:30.231Z,101472.23
2018-09-17T01:57:35.737Z,101473.55
2018-09-17T01:58:41.164Z,101470.59
2018-09-17T01:59:46.723Z,101478.30
2018-09-17T02:00:52.234Z,101476.55
2018-09-17T02:01:57.666Z,101487.19
2018-09-17T02:03:03.165Z,101487.75
2018-09-17T02:04:08.644Z,101480.98
2018-09-17T02:05:14.139Z,101487.50
2018-09-17T02:06:19.928Z,101489.65
2018-09-17T02:07:25.417Z,101488.73
2018-09-17T02:08:30.913Z,101489.09
2018-09-17T02:09:42.685Z,101483.09
2018-09-17T02:10:48.101Z,101484.31
2018-09-17T02:11:54.093Z,101472.32
2018-09-17T02:12:59.548Z,101476.57
2018-09-17T02:14:05.216Z,101469.75
2018-09-17T02:15:10.596Z,101468.05
2018-09-17T02:16:16.024Z,101476.59
2018-09-17T02:17:21.529Z,101469.72
2018-09-17T02:18:27.200Z,101471.48
2018-09-17T02:19:32.686Z,101472.77
2018-09-17T02:20:38.269Z,101470.20
2018-09-17T02:21:43.714Z,101472.43
2018-09-17T02:22:49.205Z,101472.88
2018-09-17T02:23:54.845Z,101472.48
2018-09-17T02:25:00.332Z,101472.52
2018-09-17T02:26:05.793Z,101484.53
2018-09-17T02:27:11.288Z,101484.00
2018-09-17T02:28:16.724Z,101484.00
2018-09-17T02:29:22.146Z,101486.60
2018-09-17T02:30:27.640Z,101488.03
2018-09-17T02:31:33.082Z,101493.08
2018-09-17T02:32:38.493Z,101494.34
2018-09-17T02:33:44.060Z,101497.05
2018-09-17T02:34:49.521Z,101494.15
2018-09-17T02:35:55.133Z,101496.25
2018-09-17T02:37:00.589Z,101502.22
2018-09-17T02:38:06.004Z,101500.94
2018-09-17T02:39:11.560Z,101502.36
2018-09-17T02:40:18.224Z,101499.00
2018-09-17T02:41:23.676Z,101486.96
2018-09-17T02:42:29.129Z,101491.70
2018-09-17T02:43:34.574Z,101493.86
2018-09-17T02:44:40.006Z,101489.20
2018-09-17T02:45:45.706Z,101496.44
2018-09-17T02:46:51.221Z,101490.11
2018-09-17T02:47:56.674Z,101493.12
2018-09-17T02:49:02.081Z,101497.82
2018-09-17T02:50:08.124Z,101499.92
2018-09-17T02:51:13.606Z,101497.02
2018-09-17T02:52:19.124Z,101493.20
2018-09-17T02:53:24.707Z,101489.93
2018-09-17T02:54:30.137Z,101485.18
2018-09-17T02:55:35.590Z,101486.78
2018-09-17T02:56:41.004Z,101484.66
2018-09-17T02:57:46.796Z,101484.69
2018-09-17T02:58:52.272Z,101485.55
2018-09-17T02:59:57.710Z,101489.34
2018-09-17T03:01:03.196Z,101488.25
2018-09-17T03:02:08.747Z,101489.72
2018-09-17T03:03:14.187Z,101496.33
2018-09-17T03:04:19.612Z,101489.27
2018-09-17T03:05:25.089Z,101489.27
2018-09-17T03:06:30.573Z,101495.72
2018-09-17T03:07:36.036Z,101494.86
2018-09-17T03:08:41.525Z,101496.93
2018-09-17T03:09:46.990Z,101495.16
2018-09-17T03:10:52.905Z,101490.86
2018-09-17T03:11:58.376Z,101487.52
2018-09-17T03:13:03.896Z,101487.05
2018-09-17T03:14:09.409Z,101481.91
2018-09-17T03:15:31.838Z,101485.84
2018-09-17T03:16:52.872Z,101485.47
2018-09-17T03:17:58.367Z,101483.47
2018-09-17T03:19:03.906Z,101485.61
2018-09-17T03:20:09.293Z,101483.55
2018-09-17T03:21:14.749Z,101482.27
2018-09-17T03:22:20.197Z,101477.93
2018-09-17T03:23:25.781Z,101475.31
2018-09-17T03:24:31.388Z,101478.31
2018-09-17T03:25:36.906Z,101471.80
2018-09-17T03:26:42.353Z,101477.84
2018-09-17T03:27:47.785Z,101475.69
2018-09-17T03:28:53.549Z,101472.70
2018-09-17T03:29:59.008Z,101471.83
2018-09-17T03:31:10.097Z,101477.77
2018-09-17T03:32:15.782Z,101481.67
2018-09-17T03:33:21.385Z,101482.53
2018-09-17T03:34:27.097Z,101481.27
2018-09-17T03:35:32.539Z,101476.11
2018-09-17T03:36:37.936Z,101476.92
2018-09-17T03:37:43.514Z,101481.61
2018-09-17T03:38:49.884Z,101482.95
2018-09-17T03:39:55.739Z,101480.80
2018-09-17T03:41:02.768Z,101480.87
2018-09-17T03:42:08.907Z,101475.34
2018-09-17T03:43:14.396Z,101475.80
2018-09-17T03:44:19.979Z,101476.25
2018-09-17T03:45:25.546Z,101475.44
2018-09-17T03:46:31.055Z,101476.67
2018-09-17T03:47:36.430Z,101474.64
2018-09-17T03:48:42.403Z,101477.23
2018-09-17T03:49:47.893Z,101472.10
2018-09-17T03:50:53.362Z,101478.50
2018-09-17T03:51:58.910Z,101481.39
2018-09-17T03:53:04.717Z,101474.56
2018-09-17T03:54:10.161Z,101479.68
2018-09-17T03:55:15.597Z,101481.29
2018-09-17T03:56:21.065Z,101480.43
2018-09-17T03:57:26.525Z,101480.41
2018-09-17T03:58:32.164Z,101474.88
2018-09-17T03:59:37.637Z,101483.00
2018-09-17T04:00:43.225Z,101479.19
2018-09-17T04:01:48.718Z,101483.47
2018-09-17T04:02:54.285Z,101481.27
2018-09-17T04:03:59.721Z,101482.58
2018-09-17T04:05:05.393Z,101483.84
2018-09-17T04:06:10.920Z,101483.45
2018-09-17T04:07:16.373Z,101484.81
2018-09-17T04:08:22.036Z,101485.28
2018-09-17T04:09:27.465Z,101496.81
2018-09-17T04:10:33.070Z,101486.06
2018-09-17T04:11:38.494Z,101488.97
2018-09-17T04:12:43.954Z,101482.53
2018-09-17T04:13:49.414Z,101487.71
2018-09-17T04:14:54.961Z,101483.86
2018-09-17T04:16:00.460Z,101485.12
2018-09-17T04:17:06.009Z,101484.26
2018-09-17T04:18:11.432Z,101485.59
2018-09-17T04:19:16.824Z,101485.22
2018-09-17T04:20:22.276Z,101487.32
2018-09-17T04:21:27.737Z,101476.67
2018-09-17T04:22:33.429Z,101482.72
2018-09-17T04:23:39.433Z,101479.33
2018-09-17T04:24:44.935Z,101474.56
2018-09-17T04:25:50.653Z,101487.87
2018-09-17T04:26:56.391Z,101471.66
2018-09-17T04:28:01.984Z,101473.06
2018-09-17T04:29:07.430Z,101474.75
2018-09-17T04:30:13.090Z,101475.16
2018-09-17T04:31:25.167Z,101476.44
2018-09-17T04:32:30.586Z,101475.18
2018-09-17T04:33:43.528Z,101475.62
2018-09-17T04:34:48.966Z,101474.71
2018-09-17T04:35:54.565Z,101478.61
2018-09-17T04:37:00.061Z,101475.71
2018-09-17T04:38:06.017Z,101482.16
2018-09-17T04:39:13.393Z,101478.84
2018-09-17T04:40:18.957Z,101481.41
2018-09-17T04:41:24.612Z,101481.82
2018-09-17T04:42:30.352Z,101480.96
2018-09-17T04:43:35.809Z,101476.28
2018-09-17T04:44:41.250Z,101476.70
2018-09-17T04:45:46.685Z,101481.90
2018-09-17T04:46:52.155Z,101477.59
2018-09-17T04:47:57.616Z,101480.61
2018-09-17T04:49:03.165Z,101480.61
2018-09-17T04:50:08.713Z,101475.91
2018-09-17T04:51:14.838Z,101472.47
2018-09-17T04:52:20.413Z,101472.94
2018-09-17T04:53:25.892Z,101483.26
2018-09-17T04:54:31.385Z,101479.02
2018-09-17T04:55:36.928Z,101483.69
2018-09-17T04:56:42.357Z,101481.48
2018-09-17T04:57:47.789Z,101479.77
2018-09-17T04:58:53.536Z,101478.06
2018-09-17T04:59:59.028Z,101483.67
2018-09-17T05:01:04.690Z,101483.67
2018-09-17T05:02:10.152Z,101479.34
2018-09-17T05:03:15.628Z,101486.23
2018-09-17T05:04:22.023Z,101485.03
2018-09-17T05:05:27.429Z,101486.78
2018-09-17T05:06:32.841Z,101484.59
2018-09-17T05:07:38.304Z,101489.23
2018-09-17T05:08:43.806Z,101486.72
2018-09-17T05:09:49.442Z,101484.15
2018-09-17T05:10:55.041Z,101488.41
2018-09-17T05:12:00.581Z,101492.65
2018-09-17T05:13:06.498Z,101484.87
2018-09-17T05:14:11.964Z,101492.95
2018-09-17T05:15:17.419Z,101495.45
2018-09-17T05:16:22.909Z,101495.47
2018-09-17T05:17:28.439Z,101493.78
2018-09-17T05:18:33.853Z,101489.83
2018-09-17T05:19:39.346Z,101488.08
2018-09-17T05:20:44.911Z,101486.80
2018-09-17T05:21:50.281Z,101489.95
2018-09-17T05:22:55.896Z,101491.63
2018-09-17T05:24:01.452Z,101492.87
2018-09-17T05:25:07.328Z,101497.61
2018-09-17T05:26:12.816Z,101495.04
2018-09-17T05:27:18.366Z,101493.33
2018-09-17T05:28:23.870Z,101495.53
2018-09-17T05:29:29.506Z,101501.09
2018-09-17T05:30:35.092Z,101501.15
2018-09-17T05:31:40.745Z,101501.97
2018-09-17T05:32:46.247Z,101501.87
2018-09-17T05:33:51.717Z,101502.31
2018-09-17T05:34:57.455Z,101498.47
2018-09-17T05:36:02.860Z,101497.53
2018-09-17T05:37:08.382Z,101496.25
2018-09-17T05:38:14.112Z,101492.80
2018-09-17T05:39:19.598Z,101496.98
2018-09-17T05:40:25.277Z,101498.66
2018-09-17T05:41:30.820Z,101496.91
2018-09-17T05:42:36.286Z,101504.55
2018-09-17T05:43:41.744Z,101510.97
2018-09-17T05:44:47.377Z,101505.78
2018-09-17T05:45:52.811Z,101502.77
2018-09-17T05:46:59.166Z,101504.52
2018-09-17T05:48:04.654Z,101508.39
2018-09-17T05:49:10.182Z,101504.59
2018-09-17T05:50:15.620Z,101510.59
2018-09-17T05:51:21.085Z,101505.02
2018-09-17T05:52:26.541Z,101509.70
2018-09-17T05:53:32.078Z,101506.34
2018-09-17T05:54:38.952Z,101497.82
2018-09-17T05:55:44.389Z,101500.85
2018-09-17T05:56:49.838Z,101503.77
2018-09-17T05:57:55.398Z,101501.20
2018-09-17T05:59:00.833Z,101508.84
2018-09-17T06:00:08.285Z,101507.92
2018-09-17T06:01:13.810Z,101504.89
2018-09-17T06:02:19.354Z,101507.07
2018-09-17T06:03:24.914Z,101507.91
2018-09-17T06:04:30.443Z,101508.23
2018-09-17T06:05:35.964Z,101500.88
2018-09-17T06:06:41.403Z,101503.77
2018-09-17T06:07:46.865Z,101506.24
2018-09-17T06:08:52.333Z,101504.47
2018-09-17T06:09:57.875Z,101508.20
2018-09-17T06:11:03.497Z,101507.23
2018-09-17T06:12:08.935Z,101508.91
2018-09-17T06:13:14.400Z,101513.97
2018-09-17T06:14:19.801Z,101516.91
2018-09-17T06:15:25.274Z,101513.03
2018-09-17T06:16:30.716Z,101515.11
2018-09-17T06:17:36.101Z,101516.27
2018-09-17T06:18:41.683Z,101520.45
2018-09-17T06:19:47.140Z,101518.65
2018-09-17T06:20:52.621Z,101516.41
2018-09-17T06:21:58.148Z,101519.74
2018-09-17T06:23:03.946Z,101522.63
2018-09-17T06:24:09.528Z,101526.80
2018-09-17T06:25:14.960Z,101524.59
2018-09-17T06:26:20.463Z,101524.96
2018-09-17T06:27:25.898Z,101529.98
2018-09-17T06:28:32.003Z,101530.36
2018-09-17T06:29:37.382Z,101530.66
2018-09-17T06:30:42.814Z,101533.12
2018-09-17T06:31:48.301Z,101531.24
2018-09-17T06:32:53.888Z,101533.67
2018-09-17T06:33:59.424Z,101533.55
2018-09-17T06:35:04.937Z,101535.61
2018-09-17T06:36:10.553Z,101532.53
2018-09-17T06:37:15.905Z,101537.14
2018-09-17T06:38:21.341Z,101539.53
2018-09-17T06:39:26.760Z,101543.69
2018-09-17T06:40:32.540Z,101538.03
2018-09-17T06:41:38.184Z,101541.38
2018-09-17T06:42:43.695Z,101534.78
2018-09-17T06:43:49.112Z,101534.20
2018-09-17T06:44:54.709Z,101536.56
2018-09-17T06:46:00.180Z,101539.42
2018-09-17T06:47:05.663Z,101538.81
2018-09-17T06:48:11.209Z,101542.05
2018-09-17T06:49:17.102Z,101536.83
2018-09-17T06:50:22.573Z,101538.37
2018-09-17T06:51:28.227Z,101536.08
2018-09-17T06:52:33.637Z,101531.62
2018-09-17T06:53:39.200Z,101533.11
2018-09-17T06:54:44.671Z,101536.31
2018-09-17T06:55:50.326Z,101536.09
2018-09-17T06:56:55.792Z,101538.50
2018-09-17T06:58:01.288Z,101538.31
2018-09-17T06:59:06.793Z,101538.05
2018-09-17T07:00:12.333Z,101543.26
2018-09-17T07:01:17.765Z,101541.70
2018-09-17T07:02:23.366Z,101536.69
2018-09-17T07:03:28.925Z,101539.29
2018-09-17T07:04:34.418Z,101538.88
2018-09-17T07:05:39.931Z,101545.52
2018-09-17T07:06:45.577Z,101546.48
2018-09-17T07:07:50.977Z,101536.15
2018-09-17T07:08:56.457Z,101539.77
2018-09-17T07:10:01.937Z,101542.02
2018-09-17T07:11:08.601Z,101540.28
2018-09-17T07:12:14.101Z,101544.77
2018-09-17T07:13:19.745Z,101547.42
2018-09-17T07:14:25.378Z,101545.75
2018-09-17T07:15:30.825Z,101543.18
2018-09-17T07:16:36.357Z,101551.44
2018-09-17T07:17:42.059Z,101554.95
2018-09-17T07:18:47.563Z,101554.16
2018-09-17T07:19:53.196Z,101554.23
2018-09-17T07:20:58.641Z,101553.62
2018-09-17T07:22:04.088Z,101555.09
2018-09-17T07:23:09.684Z,101558.79
2018-09-17T07:24:15.108Z,101556.37
2018-09-17T07:25:20.525Z,101558.50
2018-09-17T07:26:26.154Z,101555.70
2018-09-17T07:27:31.596Z,101558.89
2018-09-17T07:28:37.117Z,101561.32
2018-09-17T07:29:42.603Z,101558.52
2018-09-17T07:30:48.323Z,101554.12
2018-09-17T07:31:53.737Z,101550.91
2018-09-17T07:32:59.225Z,101548.89
2018-09-17T07:34:04.652Z,101546.59
2018-09-17T07:35:10.273Z,101550.86
2018-09-17T07:36:15.763Z,101548.31
2018-09-17T07:37:21.198Z,101541.63
2018-09-17T07:38:26.687Z,101551.62
2018-09-17T07:39:32.115Z,101546.30
2018-09-17T07:40:37.590Z,101549.19
2018-09-17T07:41:43.084Z,101551.69
2018-09-17T07:42:49.142Z,101553.28
2018-09-17T07:43:54.894Z,101547.86
2018-09-17T07:45:00.476Z,101555.89
2018-09-17T07:46:06.239Z,101553.25
2018-09-17T07:47:11.658Z,101551.49
2018-09-17T07:48:17.084Z,101551.06
2018-09-17T07:49:22.589Z,101558.38
2018-09-17T07:50:28.049Z,101560.56
2018-09-17T07:51:33.501Z,101557.75
2018-09-17T07:52:39.041Z,101559.92
2018-09-17T07:53:44.857Z,101566.47
2018-09-17T07:54:50.360Z,101555.42
2018-09-17T07:55:55.765Z,101563.41
2018-09-17T07:57:01.209Z,101563.29
2018-09-17T07:58:07.054Z,101557.08
2018-09-17T07:59:12.637Z,101564.22
2018-09-17T08:00:18.038Z,101561.72
2018-09-17T08:01:23.647Z,101562.61
2018-09-17T08:02:29.093Z,101560.36
2018-09-17T08:03:34.614Z,101566.06
2018-09-17T08:04:40.105Z,101561.09
2018-09-17T08:05:45.741Z,101562.13
2018-09-17T08:06:51.149Z,101563.62
2018-09-17T08:07:56.580Z,101556.03
2018-09-17T08:09:02.014Z,101568.89
2018-09-17T08:10:08.228Z,101563.50
2018-09-17T08:11:13.690Z,101557.80
2018-09-17T08:12:19.141Z,101556.70
2018-09-17T08:13:24.575Z,101556.19
2018-09-17T08:14:30.029Z,101557.22
2018-09-17T08:15:35.432Z,101556.98
2018-09-17T08:16:40.958Z,101556.41
2018-09-17T08:17:46.453Z,101550.98
2018-09-17T08:18:51.970Z,101557.77
2018-09-17T08:19:57.497Z,101552.88
2018-09-17T08:21:02.937Z,101557.32
2018-09-17T08:22:08.409Z,101557.85
2018-09-17T08:23:13.905Z,101560.95
2018-09-17T08:24:19.352Z,101559.52
2018-09-17T08:25:24.809Z,101559.65
2018-09-17T08:26:30.296Z,101566.27
2018-09-17T08:27:35.792Z,101570.16
2018-09-17T08:28:41.321Z,101566.44
2018-09-17T08:29:47.053Z,101562.55
2018-09-17T08:30:52.622Z,101562.13
2018-09-17T08:31:58.053Z,101564.28
2018-09-17T08:33:03.741Z,101568.29
2018-09-17T08:34:09.333Z,101569.17
2018-09-17T08:35:15.076Z,101568.29
2018-09-17T08:36:20.577Z,101564.39
2018-09-17T08:37:26.143Z,101563.50
2018-09-17T08:38:31.570Z,101560.48
2018-09-17T08:39:37.010Z,101566.18
2018-09-17T08:40:42.492Z,101565.28
2018-09-17T08:41:47.999Z,101568.38
2018-09-17T08:42:53.594Z,101567.31
2018-09-17T08:43:59.358Z,101565.34
2018-09-17T08:45:05.063Z,101563.13
2018-09-17T08:46:10.536Z,101560.16
2018-09-17T08:47:16.040Z,101565.80
2018-09-17T08:48:21.591Z,101567.73
2018-09-17T08:49:27.178Z,101567.27
2018-09-17T08:50:32.585Z,101562.84
2018-09-17T08:51:38.153Z,101566.89
2018-09-17T08:52:43.644Z,101570.48
2018-09-17T08:53:49.120Z,101574.17
2018-09-17T08:54:59.725Z,101579.67
2018-09-17T08:56:10.303Z,101567.20
2018-09-17T08:57:20.816Z,101577.76
2018-09-17T08:58:30.317Z,101581.05
2018-09-17T08:59:40.974Z,101573.31
2018-09-17T09:00:51.671Z,101578.92
2018-09-17T09:02:00.865Z,101570.85
2018-09-17T09:03:11.721Z,101579.50
2018-09-17T09:04:22.420Z,101576.60
2018-09-17T09:05:33.157Z,101572.77
2018-09-17T09:06:43.809Z,101578.83
2018-09-17T09:07:53.409Z,101573.97
2018-09-17T09:08:58.993Z,101576.27
2018-09-17T09:10:10.776Z,101573.33
2018-09-17T09:11:22.738Z,101574.92
2018-09-17T09:12:33.337Z,101570.70
2018-09-17T09:13:44.081Z,101566.30
2018-09-17T09:14:53.566Z,101570.55
2018-09-17T09:15:59.188Z,101570.91
2018-09-17T09:17:04.813Z,101566.97
2018-09-17T09:18:10.820Z,101575.61
2018-09-17T09:19:16.624Z,101571.91
2018-09-17T09:20:22.076Z,101570.59
2018-09-17T09:21:27.564Z,101573.41
2018-09-17T09:22:33.008Z,101572.78
2018-09-17T09:23:38.545Z,101573.20
2018-09-17T09:24:44.101Z,101567.08
2018-09-17T09:25:49.531Z,101563.55
2018-09-17T09:26:55.045Z,101566.20
2018-09-17T09:28:00.521Z,101560.98
2018-09-17T09:29:06.013Z,101562.20
2018-09-17T09:30:11.502Z,101558.84
2018-09-17T09:31:16.910Z,101563.73
2018-09-17T09:32:22.402Z,101561.59
2018-09-17T09:33:27.850Z,101558.48
2018-09-17T09:34:33.301Z,101564.63
2018-09-17T09:35:38.774Z,101561.60
2018-09-17T09:36:44.224Z,101560.38
2018-09-17T09:37:49.971Z,101564.31
2018-09-17T09:38:55.469Z,101561.72
2018-09-17T09:40:00.897Z,101558.67
2018-09-17T09:41:06.348Z,101559.67
2018-09-17T09:42:11.776Z,101569.48
2018-09-17T09:43:17.252Z,101563.36
2018-09-17T09:44:22.678Z,101561.11
2018-09-17T09:45:28.166Z,101560.20
2018-09-17T09:46:33.607Z,101555.33
2018-09-17T09:47:39.229Z,101554.86
2018-09-17T09:48:44.673Z,101554.86
2018-09-17T09:49:50.351Z,101555.24
2018-09-17T09:50:55.948Z,101560.33
2018-09-17T09:52:01.389Z,101554.53
2018-09-17T09:53:07.117Z,101556.57
2018-09-17T09:54:12.560Z,101555.83
2018-09-17T09:55:18.053Z,101548.81
2018-09-17T09:56:23.506Z,101550.03
2018-09-17T09:57:28.894Z,101553.47
2018-09-17T09:58:34.547Z,101554.51
2018-09-17T09:59:40.128Z,101555.71
2018-09-17T10:00:50.985Z,101553.83
2018-09-17T10:02:01.624Z,101553.45
2018-09-17T10:03:12.832Z,101549.70
2018-09-17T10:04:21.260Z,101555.26
2018-09-17T10:05:26.747Z,101558.53
2018-09-17T10:06:32.140Z,101550.30
2018-09-17T10:07:37.676Z,101550.77
2018-09-17T10:08:48.244Z,101551.58
2018-09-17T10:09:58.928Z,101550.83
2018-09-17T10:11:09.920Z,101551.66
2018-09-17T10:12:20.469Z,101548.80
2018-09-17T10:13:31.137Z,101553.55
2018-09-17T10:14:41.720Z,101555.80
2018-09-17T10:15:55.388Z,101548.39
2018-09-17T10:17:06.001Z,101550.98
2018-09-17T10:18:16.644Z,101544.16
2018-09-17T10:19:24.293Z,101544.42
2018-09-17T10:20:29.854Z,101544.63
2018-09-17T10:21:35.283Z,101543.66
2018-09-17T10:22:40.881Z,101543.48
2018-09-17T10:23:46.669Z,101543.02
2018-09-17T10:24:52.102Z,101543.84
2018-09-17T10:25:57.655Z,101542.41
2018-09-17T10:27:03.101Z,101544.17
2018-09-17T10:28:08.944Z,101548.10
2018-09-17T10:29:14.488Z,101542.83
2018-09-17T10:30:20.013Z,101538.39
2018-09-17T10:31:25.523Z,101540.05
2018-09-17T10:32:31.049Z,101533.67
2018-09-17T10:33:37.079Z,101537.22
2018-09-17T10:34:43.089Z,101531.21
2018-09-17T10:35:48.509Z,101530.86
2018-09-17T10:36:53.956Z,101528.75
2018-09-17T10:37:59.373Z,101534.79
2018-09-17T10:39:07.300Z,101540.38
2018-09-17T10:40:12.837Z,101523.16
2018-09-17T10:41:18.547Z,101537.95
2018-09-17T10:42:24.066Z,101527.38
2018-09-17T10:43:29.496Z,101529.74
2018-09-17T10:44:35.412Z,101529.71
2018-09-17T10:45:41.081Z,101526.45
2018-09-17T10:46:46.720Z,101526.42
2018-09-17T10:47:52.233Z,101528.27
2018-09-17T10:48:57.673Z,101525.11
2018-09-17T10:50:03.425Z,101530.02
2018-09-17T10:51:08.916Z,101522.52
2018-09-17T10:52:14.349Z,101525.67
2018-09-17T10:53:19.761Z,101526.11
2018-09-17T10:54:25.143Z,101524.41
2018-09-17T10:55:30.723Z,101519.33
2018-09-17T10:56:36.209Z,101520.16
2018-09-17T10:57:41.665Z,101521.84
2018-09-17T10:58:47.104Z,101517.23
2018-09-17T10:59:52.580Z,101521.37
2018-09-17T11:00:58.000Z,101512.91
2018-09-17T11:02:03.857Z,101517.95
2018-09-17T11:03:09.748Z,101516.50
2018-09-17T11:04:15.264Z,101510.77
2018-09-17T11:05:20.662Z,101506.41
2018-09-17T11:06:26.085Z,101506.98
2018-09-17T11:07:31.561Z,101506.38
2018-09-17T11:08:36.990Z,101504.86
2018-09-17T11:09:42.453Z,101502.87
2018-09-17T11:10:48.005Z,101500.42
2018-09-17T11:11:53.466Z,101505.33
2018-09-17T11:12:58.961Z,101505.42
2018-09-17T11:14:04.512Z,101505.33
2018-09-17T11:15:10.046Z,101496.80
2018-09-17T11:16:15.476Z,101502.28
2018-09-17T11:17:21.014Z,101506.70
2018-09-17T11:18:26.682Z,101498.73
2018-09-17T11:19:32.325Z,101499.31
2018-09-17T11:20:37.888Z,101507.25
2018-09-17T11:21:43.320Z,101498.77
2018-09-17T11:22:48.768Z,101499.52
2018-09-17T11:23:54.229Z,101501.45
2018-09-17T11:24:59.629Z,101506.31
2018-09-17T11:26:05.090Z,101498.47
2018-09-17T11:27:10.804Z,101493.14
2018-09-17T11:28:16.297Z,101493.03
2018-09-17T11:29:22.143Z,101493.78
2018-09-17T11:30:27.620Z,101494.06
2018-09-17T11:31:33.151Z,101495.72
2018-09-17T11:32:39.693Z,101493.64
2018-09-17T11:33:45.145Z,101491.84
2018-09-17T11:34:50.833Z,101490.94
2018-09-17T11:35:56.289Z,101484.86
2018-09-17T11:37:01.740Z,101485.75
2018-09-17T11:38:07.709Z,101491.77
2018-09-17T11:39:13.216Z,101490.05
2018-09-17T11:40:18.861Z,101488.17
2018-09-17T11:41:24.305Z,101487.27
2018-09-17T11:42:29.715Z,101487.92
2018-09-17T11:43:35.150Z,101477.30
2018-09-17T11:44:40.646Z,101483.02
2018-09-17T11:45:46.093Z,101483.19
2018-09-17T11:46:51.528Z,101486.29
2018-09-17T11:47:57.016Z,101486.88
2018-09-17T11:49:02.521Z,101483.19
2018-09-17T11:50:08.021Z,101480.36
2018-09-17T11:51:13.476Z,101487.23
2018-09-17T11:52:18.889Z,101479.59
2018-09-17T11:53:24.314Z,101484.39
2018-09-17T11:54:29.864Z,101487.54
2018-09-17T11:55:35.297Z,101482.23
2018-09-17T11:56:40.807Z,101483.38
2018-09-17T11:57:46.261Z,101483.65
2018-09-17T11:58:51.702Z,101481.82
2018-09-17T11:59:57.204Z,101483.23
2018-09-17T12:01:07.852Z,101480.39
2018-09-17T12:02:18.419Z,101479.38
2018-09-17T12:03:29.008Z,101480.50
2018-09-17T12:04:39.766Z,101482.88
2018-09-17T12:05:50.518Z,101483.49
2018-09-17T12:07:01.353Z,101480.77
2018-09-17T12:08:09.392Z,101480.04
2018-09-17T12:09:14.868Z,101480.44
2018-09-17T12:10:20.329Z,101479.15
2018-09-17T12:11:25.743Z,101468.94
2018-09-17T12:12:31.276Z,101476.48
2018-09-17T12:13:36.697Z,101476.77
2018-09-17T12:14:42.217Z,101476.80
2018-09-17T12:15:47.797Z,101476.30
2018-09-17T12:16:53.211Z,101473.08
2018-09-17T12:17:58.689Z,101475.81
2018-09-17T12:19:04.180Z,101477.22
2018-09-17T12:20:09.772Z,101474.77
2018-09-17T12:21:15.334Z,101473.80
2018-09-17T12:22:20.809Z,101472.36
2018-09-17T12:23:26.243Z,101473.67
2018-09-17T12:24:32.069Z,101471.66
2018-09-17T12:25:37.545Z,101473.72
2018-09-17T12:26:42.956Z,101471.19
2018-09-17T12:27:48.462Z,101466.20
2018-09-17T12:28:53.956Z,101466.58
2018-09-17T12:29:59.576Z,101467.53
2018-09-17T12:31:05.056Z,101466.08
2018-09-17T12:32:10.591Z,101463.08